CheckWX is a tool to help pilots better visualize weather data.  It is not intended as a substitute for an official pre-flight weather briefing.

03:15:20 UTC

TDPD METAR
Melville Hall Airport
Marigot, Dominica
Current

2 hours ago

TDPD 190100Z 11012KT 9999 BKN017 25/19 Q1020
Observed
Feb-19 @ 01:00 UTC
Wind
  • 110° at 12 KTS
Visibility
10,000+ meters
Flight Rules
MVFR
Cloud Levels
  • Broken at 1,700' AGL
Temperature
25°C / 77°F
Dewpoint
19°C / 66°F
Humidity
69%
Altimeter
30.12" Hg
Pressure
1019.92 hPa
Previous

3 hours ago

TDPD 190000Z 11010KT 9999 BKN018 25/18 Q1020
Observed
Feb-19 @ 00:00 UTC
Wind
  • 110° at 10 KTS
Visibility
10,000+ meters
Flight Rules
MVFR
Cloud Levels
  • Broken at 1,800' AGL
Temperature
25°C / 77°F
Dewpoint
18°C / 64°F
Humidity
65%
Altimeter
30.12" Hg
Pressure
1019.92 hPa
Previous

4 hours ago

TDPD 182300Z 12008KT 9999 FEW018 25/18 Q1019
Observed
Feb-18 @ 23:00 UTC
Wind
  • 120° at 8 KTS
Visibility
10,000+ meters
Flight Rules
VFR
Cloud Levels
  • Few at 1,800' AGL
Temperature
25°C / 77°F
Dewpoint
18°C / 64°F
Humidity
65%
Altimeter
30.09" Hg
Pressure
1018.92 hPa